Terminal Aerodrome Forecast
Issued by NWS

Home | Current Version | Previous Version | Text Only | Print | Product List | Glossary On
Versions: 1 2 3 4 5 6 7 8 9 10 11 12 13 14 15 16 17 18 19 20 21 22
000
FTUS41 KCAR 201120
TAFHUL
TAF
KHUL 201120Z 2012/2112 20005KT 3SM -DZ BR OVC002
     FM201600 29009KT P6SM VCSH BKN035
     FM202000 31010G18KT P6SM FEW040 SCT200
     FM210000 27004KT P6SM SCT200=

USA.gov is the U.S. government's official web portal to all federal, state and local government web resources and services.